Time;durP1;ratioP1;P1;durP2;ratioP2;P2;SDS_P1;SDS_P2;PMS_P1;PMS_P2;Temp;Humidity;BMP_temperature;BMP_pressure;BME280_temperature;BME280_humidity;BME280_pressure;Samples;Min_cycle;Max_cycle;Signal;HPM_P1;HPM_P2
2022/04/09 00:01:17;;;;;;;14.98;7.80;;;;;;;-141.50;100.00;63355.56;5093352;28;20078;-85
2022/04/09 00:03:43;;;;;;;16.92;8.40;;;;;;;-141.50;100.00;63355.56;5076373;28;20044;-82
2022/04/09 00:06:10;;;;;;;15.60;7.97;;;;;;;-141.50;100.00;63355.56;5076296;28;20040;-82
2022/04/09 00:08:36;;;;;;;14.80;8.25;;;;;;;-141.50;100.00;63355.56;5094688;28;20044;-84
2022/04/09 00:11:03;;;;;;;15.90;8.05;;;;;;;-141.50;100.00;63355.56;5076830;28;20102;-83
2022/04/09 00:13:30;;;;;;;14.90;8.60;;;;;;;-141.50;100.00;63355.56;5080628;28;20044;-82
2022/04/09 00:15:57;;;;;;;20.55;9.32;;;;;;;-141.50;100.00;63355.56;5097577;28;20052;-81
2022/04/09 00:18:23;;;;;;;16.77;9.23;;;;;;;-141.50;100.00;63355.56;5078521;28;20135;-82
2022/04/09 00:20:50;;;;;;;18.45;9.63;;;;;;;-141.50;100.00;63355.56;5096074;28;20332;-83
2022/04/09 00:23:18;;;;;;;21.48;10.52;;;;;;;-141.50;100.00;63355.56;5078190;28;20077;-83
2022/04/09 00:25:46;;;;;;;20.85;10.25;;;;;;;-141.50;100.00;63355.56;5095414;28;20044;-82
2022/04/09 00:28:12;;;;;;;22.42;10.77;;;;;;;-141.50;100.00;63355.56;5077890;28;20139;-84
2022/04/09 00:30:39;;;;;;;20.90;10.93;;;;;;;-141.50;100.00;63355.56;5077039;28;20078;-85
2022/04/09 00:33:05;;;;;;;21.33;11.07;;;;;;;-141.50;100.00;63355.56;5077823;28;20109;-85
2022/04/09 00:35:32;;;;;;;24.02;11.95;;;;;;;-141.50;100.00;63355.56;5096075;28;20083;-84
2022/04/09 00:37:59;;;;;;;24.92;11.57;;;;;;;-141.50;100.00;63355.56;5076617;28;20102;-83
2022/04/09 00:40:26;;;;;;;22.20;11.35;;;;;;;-141.50;100.00;63355.56;5083334;28;20050;-82
2022/04/09 00:42:53;;;;;;;21.88;11.65;;;;;;;-141.50;100.00;63355.56;5084419;28;20056;-83
2022/04/09 00:45:20;;;;;;;20.55;10.70;;;;;;;-141.50;100.00;63355.56;5098256;28;20051;-83
2022/04/09 00:47:47;;;;;;;22.00;10.93;;;;;;;-141.50;100.00;63355.56;5099021;28;20056;-83
2022/04/09 00:50:14;;;;;;;19.80;10.52;;;;;;;-141.50;100.00;63355.56;5079440;28;20083;-84
2022/04/09 00:52:50;;;;;;;18.63;9.85;;;;;;;-141.50;100.00;63355.56;5092988;28;20032;-82
2022/04/09 00:58:14;;;;;;;20.83;10.25;;;;;;;-141.50;100.00;63355.56;5112660;28;20048;-83
2022/04/09 01:00:42;;;;;;;25.05;11.10;;;;;;;-141.50;100.00;63355.56;5097438;28;20508;-84
2022/04/09 01:03:19;;;;;;;21.30;9.90;;;;;;;-141.50;100.00;63355.56;5097720;28;20083;-84
2022/04/09 01:05:48;;;;;;;20.13;9.57;;;;;;;-141.50;100.00;63355.56;5078548;28;20048;-80
2022/04/09 01:08:15;;;;;;;18.23;9.45;;;;;;;-141.50;100.00;63355.56;5097680;28;20056;-82
2022/04/09 01:10:46;;;;;;;18.50;9.70;;;;;;;-141.50;100.00;63355.56;5096839;28;20515;-82
2022/04/09 01:13:13;;;;;;;19.30;9.20;;;;;;;-141.50;100.00;63355.56;5093915;28;20079;-81
2022/04/09 01:15:40;;;;;;;16.63;8.25;;;;;;;-141.50;100.00;63355.56;5094117;28;20127;-81
2022/04/09 01:18:07;;;;;;;15.30;8.85;;;;;;;-141.50;100.00;63355.56;5076211;28;20414;-83
2022/04/09 01:20:33;;;;;;;15.10;7.88;;;;;;;-141.50;100.00;63355.56;5077153;28;20089;-83
2022/04/09 01:23:00;;;;;;;13.30;7.45;;;;;;;-141.50;100.00;63355.56;5095964;28;20131;-83
2022/04/09 01:25:26;;;;;;;13.82;7.68;;;;;;;-141.50;100.00;63355.56;5094923;28;20044;-80
2022/04/09 01:27:53;;;;;;;13.57;7.55;;;;;;;-141.50;100.00;63355.56;5076334;28;20071;-83
2022/04/09 01:30:20;;;;;;;15.43;7.38;;;;;;;-141.50;100.00;63355.56;5077532;28;20109;-81
2022/04/09 01:32:46;;;;;;;14.63;7.53;;;;;;;-141.50;100.00;63355.56;5095839;28;20044;-79
2022/04/09 01:35:13;;;;;;;13.82;7.28;;;;;;;-141.50;100.00;63355.56;5092489;28;20063;-82
2022/04/09 01:37:40;;;;;;;19.80;7.88;;;;;;;-141.50;100.00;63355.56;5093147;28;20505;-82
2022/04/09 01:40:07;;;;;;;14.75;7.25;;;;;;;-141.50;100.00;63355.56;5078414;28;20445;-80
2022/04/09 01:42:36;;;;;;;15.35;7.50;;;;;;;-141.50;100.00;63355.56;5096286;28;20105;-84
2022/04/09 01:45:07;;;;;;;13.77;7.30;;;;;;;-141.50;100.00;63355.56;5079460;28;20060;-82
2022/04/09 01:47:35;;;;;;;14.13;7.28;;;;;;;-141.50;100.00;63355.56;5078101;28;20468;-81
2022/04/09 01:50:02;;;;;;;15.15;7.15;;;;;;;-141.50;100.00;63355.56;5083420;28;20052;-81
2022/04/09 01:52:28;;;;;;;12.45;6.70;;;;;;;-141.50;100.00;63355.56;5102133;28;20094;-81
2022/04/09 01:54:55;;;;;;;17.02;6.88;;;;;;;-141.50;100.00;63355.56;5079092;28;20059;-81
2022/04/09 01:57:21;;;;;;;14.63;7.45;;;;;;;-141.50;100.00;63355.56;5095701;28;20524;-82
2022/04/09 01:59:48;;;;;;;15.85;7.28;;;;;;;-141.50;100.00;63355.56;5095632;28;20044;-83
2022/04/09 02:02:14;;;;;;;15.25;7.32;;;;;;;-141.50;100.00;63355.56;5076934;28;20252;-79
2022/04/09 02:04:41;;;;;;;15.93;7.25;;;;;;;-141.50;100.00;63355.56;5095728;28;20104;-83
2022/04/09 02:07:08;;;;;;;15.40;7.55;;;;;;;-141.50;100.00;63355.56;5094140;28;20127;-81
2022/04/09 02:09:34;;;;;;;16.65;6.97;;;;;;;-141.50;100.00;63355.56;5077841;28;20048;-79
2022/04/09 02:12:01;;;;;;;16.00;7.40;;;;;;;-141.50;100.00;63355.56;5078262;28;20048;-83
2022/04/09 02:14:28;;;;;;;16.13;8.10;;;;;;;-141.50;100.00;63355.56;5094753;28;20063;-82
2022/04/09 02:16:54;;;;;;;19.20;7.93;;;;;;;-141.50;100.00;63355.56;5075874;28;20075;-83
2022/04/09 02:19:21;;;;;;;18.13;8.68;;;;;;;-141.50;100.00;63355.56;5079641;28;20068;-82
2022/04/09 02:21:48;;;;;;;20.73;9.13;;;;;;;-141.50;100.00;63355.56;5099675;28;20056;-82
2022/04/09 02:24:15;;;;;;;21.50;9.45;;;;;;;-141.50;100.00;63355.56;5094609;28;20055;-80
2022/04/09 02:26:41;;;;;;;19.65;9.60;;;;;;;-141.50;100.00;63355.56;5093687;28;20097;-82
2022/04/09 02:29:08;;;;;;;20.23;10.27;;;;;;;-141.50;100.00;63355.56;5094323;28;20150;-83
2022/04/09 02:31:34;;;;;;;23.63;11.52;;;;;;;-141.50;100.00;63355.56;5092756;28;20074;-81
2022/04/09 02:34:01;;;;;;;24.27;11.75;;;;;;;-141.50;100.00;63355.56;5075271;28;20113;-83
2022/04/09 02:36:29;;;;;;;30.15;14.35;;;;;;;-141.50;100.00;63355.56;5087973;28;20368;-82
2022/04/09 02:38:55;;;;;;;22.75;12.52;;;;;;;-141.50;100.00;63355.56;5056501;28;20080;-83
2022/04/09 02:41:22;;;;;;;27.90;13.00;;;;;;;-141.50;100.00;63355.56;5088541;28;20048;-82
2022/04/09 02:43:48;;;;;;;27.35;12.88;;;;;;;-141.50;100.00;63355.56;5091987;28;20052;-81
2022/04/09 02:46:16;;;;;;;30.33;13.35;;;;;;;-141.50;100.00;63355.56;5092549;28;20052;-82
2022/04/09 02:48:43;;;;;;;29.20;12.48;;;;;;;-141.50;100.00;63355.56;5080935;28;20553;-82
2022/04/09 02:51:10;;;;;;;29.90;13.32;;;;;;;-141.50;100.00;63355.56;5074229;28;20083;-81
2022/04/09 02:53:39;;;;;;;25.70;13.88;;;;;;;-141.50;100.00;63355.56;5074371;28;20044;-82
2022/04/09 02:56:05;;;;;;;25.85;13.20;;;;;;;-141.50;100.00;63355.56;5092926;28;20551;-80
2022/04/09 02:58:32;;;;;;;25.60;12.60;;;;;;;-141.50;100.00;63355.56;5075386;28;20415;-81
2022/04/09 03:00:59;;;;;;;27.40;13.60;;;;;;;-141.50;100.00;63355.56;5092558;28;20117;-81
2022/04/09 03:03:25;;;;;;;28.73;13.10;;;;;;;-141.50;100.00;63355.56;5093210;28;20090;-82
2022/04/09 03:05:53;;;;;;;27.30;13.27;;;;;;;-141.50;100.00;63355.56;5094521;28;20071;-82
2022/04/09 03:08:19;;;;;;;27.60;12.98;;;;;;;-141.50;100.00;63355.56;5076737;28;20048;-81
2022/04/09 03:10:46;;;;;;;26.15;12.73;;;;;;;-141.50;100.00;63355.56;5095026;28;20047;-82
2022/04/09 03:13:12;;;;;;;24.92;12.13;;;;;;;-141.50;100.00;63355.56;5077081;28;20071;-82
2022/04/09 03:15:41;;;;;;;28.20;13.48;;;;;;;-141.50;100.00;63355.56;5094962;28;20560;-83
2022/04/09 03:18:10;;;;;;;23.85;12.18;;;;;;;-141.50;100.00;63355.56;5077355;28;20108;-83
2022/04/09 03:20:38;;;;;;;22.58;11.48;;;;;;;-141.50;100.00;63355.56;5093650;28;20048;-82
2022/04/09 03:23:04;;;;;;;22.52;11.40;;;;;;;-141.50;100.00;63355.56;5094708;28;20054;-81
2022/04/09 03:25:31;;;;;;;23.48;11.90;;;;;;;-141.50;100.00;63355.56;5095286;28;20496;-80
2022/04/09 03:27:57;;;;;;;20.98;11.52;;;;;;;-141.50;100.00;63355.56;5076442;28;20113;-81
2022/04/09 03:30:24;;;;;;;23.77;12.20;;;;;;;-141.50;100.00;63355.56;5074018;28;20071;-81
2022/04/09 03:32:52;;;;;;;23.27;11.45;;;;;;;-141.50;100.00;63355.56;5090621;28;20059;-79
2022/04/09 03:35:19;;;;;;;22.55;11.70;;;;;;;-141.50;100.00;63355.56;5067305;28;20486;-80
2022/04/09 03:37:45;;;;;;;22.92;11.60;;;;;;;-141.50;100.00;63355.56;5089336;28;20106;-80
2022/04/09 03:40:13;;;;;;;22.38;12.23;;;;;;;-141.50;100.00;63355.56;5091723;28;20044;-81
2022/04/09 03:42:40;;;;;;;20.58;11.35;;;;;;;-141.50;100.00;63355.56;5091243;28;20052;-80
2022/04/09 03:45:07;;;;;;;20.83;11.15;;;;;;;-141.50;100.00;63355.56;5073143;28;20048;-82
2022/04/09 03:47:34;;;;;;;21.08;10.90;;;;;;;-141.50;100.00;63355.56;5073529;28;20548;-81
2022/04/09 03:50:02;;;;;;;19.98;11.40;;;;;;;-141.50;100.00;63355.56;5092668;28;20127;-83
2022/04/09 03:52:28;;;;;;;24.70;11.35;;;;;;;-141.50;100.00;63355.56;5074614;28;20075;-82
2022/04/09 03:54:55;;;;;;;23.60;11.50;;;;;;;-141.50;100.00;63355.56;5074969;28;20051;-80
2022/04/09 03:57:22;;;;;;;25.23;12.52;;;;;;;-141.50;100.00;63355.56;5074816;28;20048;-82
2022/04/09 03:59:51;;;;;;;22.40;11.70;;;;;;;-141.50;100.00;63355.56;5075302;28;20052;-80
2022/04/09 04:02:18;;;;;;;28.85;12.13;;;;;;;-141.50;100.00;63355.56;5074281;28;20044;-80
2022/04/09 04:04:45;;;;;;;23.90;12.80;;;;;;;-141.50;100.00;63355.56;5093632;28;20760;-80
2022/04/09 04:07:13;;;;;;;26.40;13.35;;;;;;;-141.50;100.00;63355.56;5074520;28;20101;-79
2022/04/09 04:09:39;;;;;;;26.35;12.63;;;;;;;-141.50;100.00;63355.56;5075292;28;20125;-79
2022/04/09 04:12:07;;;;;;;28.08;12.60;;;;;;;-141.50;100.00;63355.56;5093095;28;20143;-81
2022/04/09 04:14:33;;;;;;;24.00;12.27;;;;;;;-141.50;100.00;63355.56;5075076;28;20044;-80
2022/04/09 04:17:00;;;;;;;26.88;11.93;;;;;;;-141.50;100.00;63355.56;5093964;28;20044;-81
2022/04/09 04:19:26;;;;;;;23.92;12.57;;;;;;;-141.50;100.00;63355.56;5091581;28;20098;-82
2022/04/09 04:21:53;;;;;;;27.95;12.65;;;;;;;-141.50;100.00;63355.56;5093743;28;20082;-81
2022/04/09 04:24:19;;;;;;;28.20;12.35;;;;;;;-141.50;100.00;63355.56;5092683;28;20102;-77
2022/04/09 04:26:47;;;;;;;27.30;12.48;;;;;;;-141.50;100.00;63355.56;5093672;28;20074;-80
2022/04/09 04:29:13;;;;;;;24.48;12.27;;;;;;;-141.50;100.00;63355.56;5095234;28;20072;-81
2022/04/09 04:31:40;;;;;;;27.45;12.95;;;;;;;-141.50;100.00;63355.56;5091466;28;20063;-79
2022/04/09 04:34:06;;;;;;;26.08;13.30;;;;;;;-141.50;100.00;63355.56;5090368;28;20150;-80
2022/04/09 04:36:33;;;;;;;31.67;13.60;;;;;;;-141.50;100.00;63355.56;5067549;28;20117;-82
2022/04/09 04:38:59;;;;;;;30.67;14.00;;;;;;;-141.50;100.00;63355.56;5056793;28;20108;-82
2022/04/09 04:41:28;;;;;;;28.83;14.10;;;;;;;-141.50;100.00;63355.56;5070581;28;20105;-78
2022/04/09 04:43:54;;;;;;;26.52;13.93;;;;;;;-141.50;100.00;63355.56;5073984;28;20087;-79
2022/04/09 04:46:21;;;;;;;30.80;13.98;;;;;;;-141.50;100.00;63355.56;5090618;28;20067;-80
2022/04/09 04:48:47;;;;;;;31.95;14.70;;;;;;;-141.50;100.00;63355.56;5072273;28;20155;-80
2022/04/09 04:51:14;;;;;;;32.65;16.02;;;;;;;-141.50;100.00;63355.56;5073867;28;20080;-78
2022/04/09 04:53:40;;;;;;;28.33;14.80;;;;;;;-141.50;100.00;63355.56;5095958;28;20499;-79
2022/04/09 04:56:07;;;;;;;35.42;15.27;;;;;;;-141.50;100.00;63355.56;5095902;28;20418;-77
2022/04/09 04:58:34;;;;;;;30.42;14.60;;;;;;;-141.50;100.00;63355.56;5108769;28;20097;-77
2022/04/09 05:01:00;;;;;;;24.17;14.15;;;;;;;-141.50;100.00;63355.56;5108207;28;20116;-78
2022/04/09 05:03:27;;;;;;;33.80;15.68;;;;;;;-141.50;100.00;63355.56;5086809;28;20072;-79
2022/04/09 05:05:53;;;;;;;26.05;14.60;;;;;;;-141.50;100.00;63355.56;5094272;28;20062;-83
2022/04/09 05:08:20;;;;;;;29.35;14.55;;;;;;;-141.50;100.00;63355.56;5077875;28;20048;-82
2022/04/09 05:10:47;;;;;;;30.00;14.48;;;;;;;-141.50;100.00;63355.56;5080213;28;20052;-81
2022/04/09 05:13:13;;;;;;;29.17;14.30;;;;;;;-141.50;100.00;63355.56;5081449;28;20441;-79
2022/04/09 05:15:40;;;;;;;27.13;13.73;;;;;;;-141.50;100.00;63355.56;5093184;28;20056;-78
2022/04/09 05:18:07;;;;;;;25.63;14.30;;;;;;;-141.50;100.00;63355.56;5113116;28;20040;-78
2022/04/09 05:20:33;;;;;;;27.10;14.85;;;;;;;-141.50;100.00;63355.56;5114986;28;20043;-81
2022/04/09 05:23:01;;;;;;;27.52;14.25;;;;;;;-141.50;100.00;63355.56;5113405;28;20048;-77
2022/04/09 05:25:31;;;;;;;26.48;13.77;;;;;;;-141.50;100.00;63355.56;5087229;28;20055;-78
2022/04/09 05:28:08;;;;;;;33.28;15.05;;;;;;;-141.50;100.00;63355.56;5082184;28;20101;-80
2022/04/09 05:30:41;;;;;;;27.25;13.77;;;;;;;-141.50;100.00;63355.56;5084455;28;20060;-78
2022/04/09 05:33:09;;;;;;;34.42;13.88;;;;;;;-141.50;100.00;63355.56;5102774;28;20086;-78
2022/04/09 05:35:35;;;;;;;26.30;13.23;;;;;;;-141.50;100.00;63355.56;5106758;28;20052;-81
2022/04/09 05:38:03;;;;;;;27.90;12.82;;;;;;;-141.50;100.00;63355.56;5073218;28;20123;-83
2022/04/09 05:40:30;;;;;;;24.60;13.05;;;;;;;-141.50;100.00;63355.56;5092656;28;20523;-81
2022/04/09 05:42:56;;;;;;;22.58;12.05;;;;;;;-141.50;100.00;63355.56;5102662;28;20239;-79
2022/04/09 05:45:24;;;;;;;25.38;11.77;;;;;;;-141.50;100.00;63355.56;5099011;28;20101;-82
2022/04/09 05:47:51;;;;;;;28.40;12.10;;;;;;;-141.50;100.00;63355.56;5097816;28;20059;-80
2022/04/09 05:50:17;;;;;;;22.08;10.68;;;;;;;-141.50;100.00;63355.56;5080065;28;20131;-83
2022/04/09 05:52:44;;;;;;;22.33;10.50;;;;;;;-141.50;100.00;63355.56;5078672;28;20048;-83
2022/04/09 05:55:11;;;;;;;22.00;9.45;;;;;;;-141.50;100.00;63355.56;5079104;28;20039;-81
2022/04/09 05:57:38;;;;;;;22.42;8.77;;;;;;;-141.50;100.00;63355.56;5074551;28;20109;-85
2022/04/09 06:00:06;;;;;;;22.00;9.80;;;;;;;-141.50;100.00;63355.56;5094516;28;20504;-79
2022/04/09 06:02:35;;;;;;;21.25;9.40;;;;;;;-141.50;100.00;63355.56;5092925;28;20052;-78
2022/04/09 06:05:01;;;;;;;18.80;8.52;;;;;;;-141.50;100.00;63355.56;5092339;28;20047;-86
2022/04/09 06:07:28;;;;;;;20.52;9.23;;;;;;;-141.50;100.00;63355.56;5077368;28;20457;-81
2022/04/09 06:09:54;;;;;;;20.45;8.45;;;;;;;-141.50;100.00;63355.56;5096858;28;20093;-78
2022/04/09 06:12:21;;;;;;;26.00;8.80;;;;;;;-141.50;100.00;63355.56;5077799;28;20488;-83
2022/04/09 06:14:47;;;;;;;19.23;7.32;;;;;;;-141.50;100.00;63355.56;5096902;28;20561;-77
2022/04/09 06:17:14;;;;;;;17.25;6.82;;;;;;;-141.50;100.00;63355.56;5078294;28;20044;-81
2022/04/09 06:19:41;;;;;;;21.45;7.75;;;;;;;-141.50;100.00;63355.56;5077789;28;20082;-82
2022/04/09 06:22:07;;;;;;;15.80;6.90;;;;;;;-141.50;100.00;63355.56;5078660;28;20131;-79
2022/04/09 06:24:34;;;;;;;16.63;6.25;;;;;;;-141.50;100.00;63355.56;5095913;28;20130;-82
2022/04/09 06:27:00;;;;;;;15.13;6.22;;;;;;;-141.50;100.00;63355.56;5096603;28;20079;-80
2022/04/09 06:29:29;;;;;;;20.20;6.43;;;;;;;-141.50;100.00;63355.56;5078184;28;20124;-80
2022/04/09 06:31:56;;;;;;;16.05;6.30;;;;;;;-141.50;100.00;63355.56;5088435;28;20589;-81
2022/04/09 06:34:22;;;;;;;13.80;6.60;;;;;;;-141.50;100.00;63355.56;5070951;28;20152;-78
2022/04/09 06:36:49;;;;;;;18.10;6.32;;;;;;;-141.50;100.00;63355.56;5073082;28;20146;-78
2022/04/09 06:39:18;;;;;;;14.70;6.60;;;;;;;-141.50;100.00;63355.56;5093054;28;20426;-83
2022/04/09 06:41:46;;;;;;;15.52;6.40;;;;;;;-141.50;100.00;63355.56;5088500;28;20052;-82
2022/04/09 06:44:13;;;;;;;12.35;5.65;;;;;;;-141.50;100.00;63355.56;5071565;28;20062;-79
2022/04/09 06:46:43;;;;;;;17.75;5.60;;;;;;;-141.50;100.00;63355.56;5088563;28;20163;-78
2022/04/09 06:49:13;;;;;;;12.40;5.57;;;;;;;-141.50;100.00;63355.56;5090356;28;20535;-80
2022/04/09 06:51:41;;;;;;;17.23;5.65;;;;;;;-141.50;100.00;63355.56;5079697;28;20560;-79
2022/04/09 06:54:09;;;;;;;17.50;6.38;;;;;;;-141.50;100.00;63355.56;5076028;28;20561;-80
2022/04/09 06:56:37;;;;;;;14.38;5.18;;;;;;;-141.50;100.00;63355.56;5095713;28;20052;-79
2022/04/09 06:59:04;;;;;;;9.00;4.32;;;;;;;-141.50;100.00;63355.56;5067344;28;20063;-79
2022/04/09 07:01:31;;;;;;;14.95;5.40;;;;;;;-141.50;100.00;63355.56;5116165;28;20043;-81
2022/04/09 07:03:58;;;;;;;14.02;4.82;;;;;;;-141.50;100.00;63355.56;5103582;28;20092;-79
2022/04/09 07:06:24;;;;;;;11.75;4.35;;;;;;;-141.50;100.00;63355.56;5095850;28;20118;-81
2022/04/09 07:08:51;;;;;;;16.52;4.55;;;;;;;-141.50;100.00;63355.56;5077029;28;20048;-80
2022/04/09 07:11:17;;;;;;;14.85;4.38;;;;;;;-141.50;100.00;63355.56;5096147;28;20076;-80
2022/04/09 07:13:44;;;;;;;15.02;3.38;;;;;;;-141.50;100.00;63355.56;5097265;28;20051;-78
2022/04/09 07:16:10;;;;;;;15.45;3.95;;;;;;;-141.50;100.00;63355.56;5097558;28;20047;-82
2022/04/09 07:18:37;;;;;;;10.25;4.10;;;;;;;-141.50;100.00;63355.56;5079921;28;20051;-80
2022/04/09 07:21:04;;;;;;;11.27;4.10;;;;;;;-141.50;100.00;63355.56;5083625;28;20052;-80
2022/04/09 07:23:30;;;;;;;16.63;3.55;;;;;;;-141.50;100.00;63355.56;5103144;28;20090;-80
2022/04/09 07:25:57;;;;;;;13.10;3.85;;;;;;;-141.50;100.00;63355.56;5102086;28;20151;-79
2022/04/09 07:28:23;;;;;;;13.70;3.95;;;;;;;-141.50;100.00;63355.56;5092980;28;20044;-78
2022/04/09 07:30:50;;;;;;;15.10;3.85;;;;;;;-141.50;100.00;63355.56;5113258;28;20071;-77
2022/04/09 07:33:16;;;;;;;15.00;4.25;;;;;;;-141.50;100.00;63355.56;5087603;28;20056;-80
2022/04/09 07:35:43;;;;;;;11.35;3.70;;;;;;;-141.50;100.00;63355.56;5074864;28;20044;-80
2022/04/09 07:38:10;;;;;;;15.27;3.67;;;;;;;-141.50;100.00;63355.56;5082359;28;20063;-79
2022/04/09 07:40:37;;;;;;;13.65;3.78;;;;;;;-141.50;100.00;63355.56;5100914;28;20059;-81
2022/04/09 07:43:04;;;;;;;14.90;3.83;;;;;;;-141.50;100.00;63355.56;5098070;28;20055;-78
2022/04/09 07:45:30;;;;;;;14.35;3.65;;;;;;;-141.50;100.00;63355.56;5098166;28;20101;-81
2022/04/09 07:47:59;;;;;;;11.95;3.28;;;;;;;-141.50;100.00;63355.56;5099396;28;20052;-81
2022/04/09 07:50:28;;;;;;;12.98;3.22;;;;;;;-141.50;100.00;63355.56;5081902;28;20551;-78
2022/04/09 07:52:57;;;;;;;12.18;3.03;;;;;;;-141.50;100.00;63355.56;5099228;28;20051;-80
2022/04/09 07:55:23;;;;;;;7.72;2.38;;;;;;;-141.50;100.00;63355.56;5099404;28;20195;-81
2022/04/09 07:57:51;;;;;;;10.15;2.35;;;;;;;-141.50;100.00;63355.56;5098800;28;20064;-80
2022/04/09 08:00:19;;;;;;;10.57;2.35;;;;;;;-141.50;100.00;63355.56;5098029;28;20130;-80
2022/04/09 08:02:46;;;;;;;8.73;2.42;;;;;;;-141.50;100.00;63355.56;5099642;28;20504;-81
2022/04/09 08:05:12;;;;;;;11.20;2.40;;;;;;;-141.50;100.00;63355.56;5097719;28;20476;-78
2022/04/09 08:07:40;;;;;;;9.55;1.92;;;;;;;-141.50;100.00;63355.56;5096934;28;20044;-78
2022/04/09 08:10:08;;;;;;;8.77;1.80;;;;;;;-141.50;100.00;63355.56;5081832;28;20069;-79
2022/04/09 08:12:35;;;;;;;9.75;1.95;;;;;;;-141.50;100.00;63355.56;5097299;28;20055;-80
2022/04/09 08:15:01;;;;;;;10.38;2.30;;;;;;;-141.50;100.00;63355.56;5094782;28;20108;-82
2022/04/09 08:17:28;;;;;;;9.85;1.85;;;;;;;-141.50;100.00;63355.56;5073398;28;20667;-79
2022/04/09 08:19:55;;;;;;;6.88;1.45;;;;;;;-141.50;100.00;63355.56;5091097;28;20695;-79
2022/04/09 08:22:22;;;;;;;6.90;1.85;;;;;;;-141.50;100.00;63355.56;5093254;28;20087;-79
2022/04/09 08:24:49;;;;;;;11.15;1.60;;;;;;;-141.50;100.00;63355.56;5075280;28;20101;-77
2022/04/09 08:27:16;;;;;;;8.00;1.60;;;;;;;-141.50;100.00;63355.56;5094636;28;20109;-79
2022/04/09 08:29:42;;;;;;;4.85;1.50;;;;;;;-141.50;100.00;63355.56;5094902;28;20156;-79
2022/04/09 08:32:09;;;;;;;5.28;1.50;;;;;;;-141.50;100.00;63355.56;5095047;28;20043;-81
2022/04/09 08:34:37;;;;;;;9.15;1.90;;;;;;;-141.50;100.00;63355.56;5098732;28;20411;-78
2022/04/09 08:37:06;;;;;;;12.48;1.90;;;;;;;-141.50;100.00;63355.56;5090424;28;20052;-80
2022/04/09 08:39:34;;;;;;;5.15;1.70;;;;;;;-141.50;100.00;63355.56;5076587;28;20121;-78
2022/04/09 08:42:02;;;;;;;11.85;2.45;;;;;;;-141.50;100.00;63355.56;5095564;28;20052;-79
2022/04/09 08:44:30;;;;;;;8.52;2.03;;;;;;;-141.50;100.00;63355.56;5078428;28;20626;-79
2022/04/09 08:46:57;;;;;;;6.88;2.30;;;;;;;-141.50;100.00;63355.56;5097576;28;20074;-80
2022/04/09 08:49:24;;;;;;;11.30;2.30;;;;;;;-141.50;100.00;63355.56;5098493;28;20101;-79
2022/04/09 08:51:52;;;;;;;6.78;2.22;;;;;;;-141.50;100.00;63355.56;5079839;28;20043;-80
2022/04/09 08:54:19;;;;;;;11.52;2.05;;;;;;;-141.50;100.00;63355.56;5099157;28;20422;-80
2022/04/09 08:56:47;;;;;;;7.88;2.20;;;;;;;-141.50;100.00;63355.56;5099298;28;20056;-78
2022/04/09 08:59:14;;;;;;;7.35;1.77;;;;;;;-141.50;100.00;63355.56;5099790;28;20079;-81
2022/04/09 09:01:40;;;;;;;4.68;1.85;;;;;;;-141.50;100.00;63355.56;5089408;28;20444;-79
2022/04/09 09:04:07;;;;;;;8.45;1.60;;;;;;;-141.50;100.00;63355.56;5094249;28;20032;-77
2022/04/09 09:06:35;;;;;;;7.15;1.30;;;;;;;-141.50;100.00;63355.56;5111208;28;20067;-78
2022/04/09 09:09:05;;;;;;;4.57;1.40;;;;;;;-141.50;100.00;63355.56;5084223;28;20123;-78
2022/04/09 09:11:48;;;;;;;5.22;1.63;;;;;;;-141.50;100.00;63355.56;5082819;28;20522;-80
2022/04/09 09:14:28;;;;;;;8.90;1.85;;;;;;;-141.50;100.00;63355.56;5099382;28;20051;-80
2022/04/09 09:16:58;;;;;;;6.63;1.80;;;;;;;-141.50;100.00;63355.56;5101538;28;20048;-78
2022/04/09 09:19:43;;;;;;;5.40;1.50;;;;;;;-141.50;100.00;63355.56;5083213;28;20051;-80
2022/04/09 09:22:09;;;;;;;5.55;1.55;;;;;;;-141.50;100.00;63355.56;5099217;28;20230;-81
2022/04/09 09:24:36;;;;;;;6.13;1.70;;;;;;;-141.50;100.00;63355.56;5108547;28;20048;-79
2022/04/09 09:27:04;;;;;;;7.43;1.80;;;;;;;-141.50;100.00;63355.56;5088016;28;20047;-76
2022/04/09 09:29:32;;;;;;;8.20;1.77;;;;;;;-141.50;100.00;63355.56;5109964;28;20150;-77
2022/04/09 09:32:01;;;;;;;6.95;2.05;;;;;;;-141.50;100.00;63355.56;5094858;28;20223;-76
2022/04/09 09:34:28;;;;;;;6.55;1.83;;;;;;;-141.50;100.00;63355.56;5108350;28;20052;-77
2022/04/09 09:36:55;;;;;;;7.78;1.73;;;;;;;-141.50;100.00;63355.56;5082745;28;20566;-77
2022/04/09 09:39:24;;;;;;;7.53;1.42;;;;;;;-141.50;100.00;63355.56;5093243;28;20056;-77
2022/04/09 09:41:58;;;;;;;6.30;2.00;;;;;;;-141.50;100.00;63355.56;5103393;28;20310;-81
2022/04/09 09:44:27;;;;;;;9.18;2.58;;;;;;;-141.50;100.00;63355.56;5099298;28;20088;-78
2022/04/09 09:47:03;;;;;;;7.00;1.70;;;;;;;-141.50;100.00;63355.56;5097421;28;20052;-78
2022/04/09 09:49:36;;;;;;;4.90;1.33;;;;;;;-141.50;100.00;63355.56;5096107;28;20458;-78
2022/04/09 09:52:09;;;;;;;6.32;1.50;;;;;;;-141.50;100.00;63355.56;5095940;28;20094;-77
2022/04/09 09:54:59;;;;;;;10.05;1.92;;;;;;;-141.50;100.00;63355.56;5075031;28;20445;-77
2022/04/09 09:57:28;;;;;;;7.53;1.50;;;;;;;-141.50;100.00;63355.56;5088285;28;20075;-76
2022/04/09 09:59:59;;;;;;;5.95;1.23;;;;;;;-141.50;100.00;63355.56;5078542;28;20083;-78
2022/04/09 10:02:30;;;;;;;3.92;0.98;;;;;;;-141.50;100.00;63355.56;5083541;28;20579;-76
2022/04/09 10:04:56;;;;;;;4.32;0.90;;;;;;;-141.50;100.00;63355.56;5104991;28;20079;-75
2022/04/09 10:07:24;;;;;;;8.73;1.30;;;;;;;-141.50;100.00;63355.56;5069325;28;20515;-78
2022/04/09 10:09:53;;;;;;;4.25;1.10;;;;;;;-141.50;100.00;63355.56;5071102;28;20044;-75
2022/04/09 10:12:24;;;;;;;5.53;1.10;;;;;;;-141.50;100.00;63355.56;5089372;28;20051;-76
2022/04/09 10:14:54;;;;;;;7.03;1.27;;;;;;;-141.50;100.00;63355.56;5087573;28;20079;-76
2022/04/09 10:17:21;;;;;;;7.72;1.20;;;;;;;-141.50;100.00;63355.56;5067203;28;20101;-76
2022/04/09 10:19:57;;;;;;;2.85;1.15;;;;;;;-141.50;100.00;63355.56;5068218;28;20055;-76
2022/04/09 10:22:25;;;;;;;;;;;;;;;-141.50;100.00;63355.56;5069830;28;20044;-76
2022/04/09 10:24:53;;;;;;;6.30;1.50;;;;;;;-141.50;100.00;63355.56;5070622;28;20014;-80
2022/04/09 10:27:35;;;;;;;5.70;1.17;;;;;;;-141.50;100.00;63355.56;5091514;28;20566;-76
2022/04/09 10:30:03;;;;;;;4.30;1.25;;;;;;;-141.50;100.00;63355.56;5092211;28;20091;-77
2022/04/09 10:32:51;;;;;;;6.00;1.20;;;;;;;-141.50;100.00;63355.56;5071129;28;20162;-77
2022/04/09 10:35:41;;;;;;;3.83;1.23;;;;;;;-141.50;100.00;63355.56;5085711;28;20440;-73
2022/04/09 10:40:43;;;;;;;6.38;1.63;;;;;;;-141.50;100.00;63355.56;5090779;28;20076;-75
2022/04/09 10:43:37;;;;;;;5.38;1.60;;;;;;;-141.50;100.00;63355.56;5092333;28;20052;-76
2022/04/09 10:46:04;;;;;;;;;;;;;;;;;;;;;
2022/04/09 10:48:31;;;;;;;4.45;1.30;;;;;;;-141.50;100.00;63355.56;5085521;28;20048;-77
2022/04/09 10:50:58;;;;;;;6.22;1.25;;;;;;;-141.50;100.00;63355.56;5068582;28;20113;-78
2022/04/09 10:53:30;;;;;;;4.13;1.35;;;;;;;-141.50;100.00;63355.56;5086994;28;20057;-79
2022/04/09 10:56:13;;;;;;;5.35;1.80;;;;;;;-141.50;100.00;63355.56;5068580;28;20064;-77
2022/04/09 10:59:10;;;;;;;4.25;1.35;;;;;;;-141.50;100.00;63355.56;5087976;28;20075;-77
2022/04/09 11:01:46;;;;;;;5.05;1.80;;;;;;;-141.50;100.00;63355.56;5067749;28;20539;-78
2022/04/09 11:04:25;;;;;;;5.65;1.35;;;;;;;-141.50;100.00;63355.56;5072587;28;20066;-79
2022/04/09 11:07:23;;;;;;;5.97;1.58;;;;;;;-141.50;100.00;63355.56;5091845;28;20563;-78
2022/04/09 11:09:54;;;;;;;3.58;1.35;;;;;;;-141.50;100.00;63355.56;5109643;28;20065;-76
2022/04/09 11:12:25;;;;;;;3.13;1.20;;;;;;;-141.50;100.00;63355.56;5072271;28;20678;-77